createdAt,value
2023-07-16T00:00:55.548Z,67.27
2023-07-16T00:01:55.562Z,69.79
2023-07-16T00:02:55.579Z,69.29
2023-07-16T00:03:55.525Z,67.07
2023-07-16T00:04:55.504Z,64.18
2023-07-16T00:05:55.478Z,62.66
2023-07-16T00:06:55.488Z,65.19
2023-07-16T00:07:55.476Z,64.98
2023-07-16T00:08:55.441Z,62.97
2023-07-16T00:09:55.429Z,64.98
2023-07-16T00:10:55.405Z,63.98
2023-07-16T00:11:55.480Z,65.89
2023-07-16T00:12:54.908Z,63.27
2023-07-16T00:13:55.405Z,66.39
2023-07-16T00:14:55.375Z,67.20
2023-07-16T00:15:55.403Z,67.60
2023-07-16T00:16:55.412Z,68.91
2023-07-16T00:17:55.461Z,68.95
2023-07-16T00:18:55.292Z,68.74
2023-07-16T00:19:55.295Z,68.34
2023-07-16T00:20:55.284Z,67.63
2023-07-16T00:21:55.283Z,66.42
2023-07-16T00:22:55.312Z,67.33
2023-07-16T00:23:55.225Z,68.24
2023-07-16T00:24:55.230Z,65.92
2023-07-16T00:25:55.213Z,64.01
2023-07-16T00:26:55.202Z,64.81
2023-07-16T00:27:55.197Z,65.52
2023-07-16T00:28:55.160Z,68.74
2023-07-16T00:29:55.168Z,67.03
2023-07-16T00:30:55.192Z,67.84
2023-07-16T00:31:55.135Z,68.95
2023-07-16T00:32:55.162Z,67.33
2023-07-16T00:33:55.107Z,67.23
2023-07-16T00:34:55.089Z,66.93
2023-07-16T00:35:55.061Z,68.85
2023-07-16T00:36:55.052Z,67.74
2023-07-16T00:37:55.068Z,64.81
2023-07-16T00:38:55.039Z,64.01
2023-07-16T00:39:54.999Z,65.72
2023-07-16T00:40:54.992Z,64.41
2023-07-16T00:41:54.970Z,65.01
2023-07-16T00:42:53.911Z,64.31
2023-07-16T00:43:54.950Z,66.02
2023-07-16T00:44:54.944Z,68.95
2023-07-16T00:45:54.926Z,68.85
2023-07-16T00:46:54.999Z,70.26
2023-07-16T00:47:54.904Z,71.77
2023-07-16T00:48:54.880Z,68.95
2023-07-16T00:49:54.882Z,68.74
2023-07-16T00:50:54.855Z,66.42
2023-07-16T00:51:54.827Z,68.24
2023-07-16T00:52:54.839Z,68.24
2023-07-16T00:53:54.820Z,70.89
2023-07-16T00:54:53.272Z,70.26
2023-07-16T00:55:54.789Z,69.95
2023-07-16T00:56:54.784Z,69.45
2023-07-16T00:57:54.826Z,73.08
2023-07-16T00:58:54.737Z,73.18
2023-07-16T00:59:54.739Z,69.75
2023-07-16T01:00:54.727Z,72.07
2023-07-16T01:01:54.749Z,74.93
2023-07-16T01:02:54.739Z,73.42
2023-07-16T01:03:54.660Z,74.93
2023-07-16T01:04:54.759Z,75.34
2023-07-16T01:05:53.202Z,71.10
2023-07-16T01:06:54.657Z,71.30
2023-07-16T01:07:54.606Z,70.26
2023-07-16T01:08:54.599Z,72.00
2023-07-16T01:09:54.611Z,70.69
2023-07-16T01:10:54.583Z,69.68
2023-07-16T01:11:54.554Z,69.18
2023-07-16T01:12:54.613Z,68.07
2023-07-16T01:13:54.559Z,71.80
2023-07-16T01:14:54.541Z,72.51
2023-07-16T01:15:54.562Z,75.63
2023-07-16T01:16:54.623Z,74.73
2023-07-16T01:17:54.587Z,70.49
2023-07-16T01:18:54.480Z,72.00
2023-07-16T01:19:54.447Z,70.09
2023-07-16T01:20:54.427Z,69.89
2023-07-16T01:21:54.427Z,72.91
2023-07-16T01:22:54.444Z,71.30
2023-07-16T01:23:54.394Z,71.30
2023-07-16T01:24:53.880Z,72.85
2023-07-16T01:25:54.369Z,71.20
2023-07-16T01:26:54.390Z,70.19
2023-07-16T01:27:54.342Z,70.42
2023-07-16T01:28:54.337Z,70.93
2023-07-16T01:29:54.298Z,71.40
2023-07-16T01:30:54.288Z,67.57
2023-07-16T01:31:54.363Z,67.27
2023-07-16T01:32:54.332Z,70.53
2023-07-16T01:33:54.290Z,71.64
2023-07-16T01:34:54.262Z,69.82
2023-07-16T01:35:54.213Z,71.33
2023-07-16T01:36:54.219Z,71.53
2023-07-16T01:37:54.195Z,77.59
2023-07-16T01:38:54.179Z,76.18
2023-07-16T01:39:54.178Z,71.44
2023-07-16T01:40:54.179Z,74.46
2023-07-16T01:41:54.123Z,74.87
2023-07-16T01:42:54.133Z,71.13
2023-07-16T01:43:54.107Z,75.87
2023-07-16T01:44:54.097Z,72.64
2023-07-16T01:45:54.135Z,71.13
2023-07-16T01:46:54.071Z,78.09
2023-07-16T01:47:54.108Z,78.90
2023-07-16T01:48:54.044Z,78.90
2023-07-16T01:49:54.023Z,77.69
2023-07-16T01:50:54.020Z,77.69
2023-07-16T01:51:54.008Z,81.42
2023-07-16T01:52:54.001Z,76.78
2023-07-16T01:53:53.972Z,77.69
2023-07-16T01:54:53.951Z,78.39
2023-07-16T01:55:53.946Z,80.62
2023-07-16T01:56:53.950Z,78.90
2023-07-16T01:57:53.914Z,74.66
2023-07-16T01:58:53.904Z,76.38
2023-07-16T01:59:53.887Z,77.89
2023-07-16T02:00:53.893Z,77.69
2023-07-16T02:01:53.935Z,71.84
2023-07-16T02:02:53.894Z,72.54
2023-07-16T02:03:53.893Z,71.44
2023-07-16T02:04:53.819Z,70.15
2023-07-16T02:05:53.798Z,76.21
2023-07-16T02:06:53.797Z,76.01
2023-07-16T02:07:51.809Z,74.09
2023-07-16T02:08:53.929Z,75.10
2023-07-16T02:09:53.740Z,79.34
2023-07-16T02:10:53.726Z,80.15
2023-07-16T02:11:53.724Z,77.32
2023-07-16T02:12:53.700Z,74.49
2023-07-16T02:13:53.685Z,72.58
2023-07-16T02:14:53.683Z,75.40
2023-07-16T02:15:52.095Z,72.68
2023-07-16T02:16:53.665Z,69.95
2023-07-16T02:17:53.673Z,71.67
2023-07-16T02:18:53.629Z,75.00
2023-07-16T02:19:53.609Z,77.06
2023-07-16T02:20:53.617Z,78.03
2023-07-16T02:21:53.583Z,73.79
2023-07-16T02:22:53.589Z,71.37
2023-07-16T02:23:53.560Z,76.11
2023-07-16T02:24:53.530Z,75.81
2023-07-16T02:25:53.547Z,73.28
2023-07-16T02:26:53.535Z,71.06
2023-07-16T02:27:53.494Z,76.21
2023-07-16T02:28:53.492Z,73.93
2023-07-16T02:29:53.474Z,73.11
2023-07-16T02:30:53.475Z,76.55
2023-07-16T02:31:53.478Z,77.46
2023-07-16T02:32:53.470Z,77.06
2023-07-16T02:33:53.427Z,75.34
2023-07-16T02:34:53.406Z,73.82
2023-07-16T02:35:53.400Z,75.44
2023-07-16T02:36:53.401Z,73.42
2023-07-16T02:37:53.371Z,74.84
2023-07-16T02:38:53.367Z,77.36
2023-07-16T02:39:53.357Z,75.34
2023-07-16T02:40:53.316Z,74.43
2023-07-16T02:41:53.353Z,78.06
2023-07-16T02:42:53.299Z,77.15
2023-07-16T02:43:53.267Z,77.66
2023-07-16T02:44:53.268Z,78.77
2023-07-16T02:45:53.258Z,77.97
2023-07-16T02:46:53.299Z,78.06
2023-07-16T02:47:53.299Z,76.55
2023-07-16T02:48:53.225Z,74.02
2023-07-16T02:49:53.214Z,72.21
2023-07-16T02:50:53.191Z,76.25
2023-07-16T02:51:53.167Z,77.56
2023-07-16T02:52:53.155Z,77.06
2023-07-16T02:53:53.161Z,76.95
2023-07-16T02:54:53.128Z,79.21
2023-07-16T02:55:53.121Z,79.92
2023-07-16T02:56:53.101Z,78.27
2023-07-16T02:57:53.075Z,77.46
2023-07-16T02:58:53.080Z,75.04
2023-07-16T02:59:53.065Z,74.02
2023-07-16T03:00:53.049Z,77.29
2023-07-16T03:01:53.040Z,77.80
2023-07-16T03:02:53.080Z,76.59
2023-07-16T03:03:53.008Z,76.28
2023-07-16T03:04:52.970Z,76.39
2023-07-16T03:05:52.975Z,75.27
2023-07-16T03:06:52.949Z,74.87
2023-07-16T03:07:52.942Z,70.22
2023-07-16T03:08:52.935Z,71.44
2023-07-16T03:09:52.910Z,73.35
2023-07-16T03:10:52.812Z,73.86
2023-07-16T03:11:52.883Z,73.35
2023-07-16T03:12:52.875Z,74.26
2023-07-16T03:13:52.864Z,75.17
2023-07-16T03:14:52.855Z,75.88
2023-07-16T03:15:52.832Z,71.94
2023-07-16T03:16:52.858Z,73.46
2023-07-16T03:17:52.837Z,75.27
2023-07-16T03:18:52.798Z,73.96
2023-07-16T03:19:52.804Z,72.75
2023-07-16T03:20:52.759Z,72.24
2023-07-16T03:21:52.768Z,75.98
2023-07-16T03:22:52.774Z,77.33
2023-07-16T03:23:52.748Z,78.91
2023-07-16T03:24:52.733Z,76.89
2023-07-16T03:25:52.709Z,75.48
2023-07-16T03:26:58.511Z,75.07
2023-07-16T03:27:53.680Z,73.86
2023-07-16T03:28:52.646Z,75.48
2023-07-16T03:29:52.646Z,75.07
2023-07-16T03:30:52.687Z,74.87
2023-07-16T03:31:52.679Z,77.64
2023-07-16T03:32:53.776Z,76.02
2023-07-16T03:33:52.617Z,75.31
2023-07-16T03:34:52.405Z,77.64
2023-07-16T03:35:52.579Z,77.64
2023-07-16T03:36:52.563Z,76.32
2023-07-16T03:37:52.542Z,77.73
2023-07-16T03:38:52.531Z,77.03
2023-07-16T03:39:52.542Z,76.89
2023-07-16T03:40:52.486Z,75.78
2023-07-16T03:41:52.497Z,74.77
2023-07-16T03:42:52.462Z,75.07
2023-07-16T03:43:52.482Z,77.23
2023-07-16T03:44:52.441Z,76.42
2023-07-16T03:45:52.445Z,75.81
2023-07-16T03:46:52.409Z,75.01
2023-07-16T03:47:52.498Z,75.81
2023-07-16T03:48:52.396Z,77.73
2023-07-16T03:49:52.369Z,77.43
2023-07-16T03:50:52.392Z,76.82
2023-07-16T03:51:52.338Z,75.21
2023-07-16T03:52:52.320Z,74.80
2023-07-16T03:53:52.334Z,77.84
2023-07-16T03:54:52.298Z,77.84
2023-07-16T03:55:52.302Z,75.92
2023-07-16T03:56:52.278Z,76.72
2023-07-16T03:57:52.261Z,75.10
2023-07-16T03:58:52.263Z,75.01
2023-07-16T03:59:52.243Z,74.19
2023-07-16T04:00:52.222Z,76.12
2023-07-16T04:01:52.229Z,76.02
2023-07-16T04:02:52.260Z,76.82
2023-07-16T04:03:52.236Z,76.72
2023-07-16T04:04:52.180Z,77.03
2023-07-16T04:05:52.167Z,79.96
2023-07-16T04:06:52.137Z,77.23
2023-07-16T04:07:52.134Z,80.97
2023-07-16T04:08:52.105Z,78.85
2023-07-16T04:09:52.109Z,79.55
2023-07-16T04:10:53.004Z,78.55
2023-07-16T04:11:52.068Z,76.22
2023-07-16T04:12:52.090Z,77.73
2023-07-16T04:13:52.045Z,77.73
2023-07-16T04:14:52.036Z,79.66
2023-07-16T04:15:52.019Z,78.55
2023-07-16T04:16:52.040Z,78.04
2023-07-16T04:17:52.085Z,79.15
2023-07-16T04:18:51.990Z,78.44
2023-07-16T04:19:51.978Z,77.94
2023-07-16T04:20:51.939Z,79.35
2023-07-16T04:21:51.944Z,81.27
2023-07-16T04:22:51.962Z,79.86
2023-07-16T04:23:51.918Z,79.96
2023-07-16T04:24:51.891Z,79.15
2023-07-16T04:25:51.877Z,79.15
2023-07-16T04:26:51.859Z,78.95
2023-07-16T04:27:51.847Z,76.22
2023-07-16T04:28:51.839Z,80.46
2023-07-16T04:29:51.826Z,79.86
2023-07-16T04:30:51.867Z,77.43
2023-07-16T04:31:51.800Z,80.46
2023-07-16T04:32:51.889Z,80.06
2023-07-16T04:33:51.776Z,78.75
2023-07-16T04:34:51.773Z,77.13
2023-07-16T04:35:51.759Z,79.35
2023-07-16T04:36:51.721Z,81.17
2023-07-16T04:37:51.761Z,81.37
2023-07-16T04:38:54.144Z,79.35
2023-07-16T04:39:51.702Z,81.48
2023-07-16T04:40:51.661Z,81.57
2023-07-16T04:41:51.654Z,79.55
2023-07-16T04:42:51.650Z,80.97
2023-07-16T04:43:51.657Z,80.36
2023-07-16T04:44:51.612Z,81.78
2023-07-16T04:45:51.606Z,81.98
2023-07-16T04:46:51.619Z,80.77
2023-07-16T04:47:51.706Z,81.17
2023-07-16T04:48:51.561Z,81.27
2023-07-16T04:49:51.546Z,83.60
2023-07-16T04:50:51.525Z,82.18
2023-07-16T04:51:51.529Z,81.88
2023-07-16T04:52:51.533Z,83.19
2023-07-16T04:53:51.496Z,80.36
2023-07-16T04:54:51.491Z,82.69
2023-07-16T04:55:51.482Z,82.24
2023-07-16T04:56:51.506Z,83.36
2023-07-16T04:57:51.444Z,85.38
2023-07-16T04:58:51.426Z,82.95
2023-07-16T04:59:51.424Z,84.57
2023-07-16T05:00:51.397Z,84.06
2023-07-16T05:01:51.470Z,86.49
2023-07-16T05:02:51.416Z,86.69
2023-07-16T05:03:51.421Z,86.29
2023-07-16T05:04:51.348Z,86.69
2023-07-16T05:05:51.319Z,86.59
2023-07-16T05:06:51.325Z,88.51
2023-07-16T05:07:51.289Z,88.01
2023-07-16T05:08:51.287Z,88.31
2023-07-16T05:09:51.271Z,89.01
2023-07-16T05:10:51.264Z,90.63
2023-07-16T05:11:51.253Z,89.83
2023-07-16T05:12:51.228Z,88.41
2023-07-16T05:13:51.205Z,90.79
2023-07-16T05:14:51.186Z,92.14
2023-07-16T05:15:51.207Z,91.24
2023-07-16T05:16:51.214Z,90.59
2023-07-16T05:17:51.245Z,95.23
2023-07-16T05:18:51.145Z,93.52
2023-07-16T05:19:51.143Z,91.90
2023-07-16T05:20:51.112Z,93.21
2023-07-16T05:21:51.095Z,93.52
2023-07-16T05:22:51.130Z,93.72
2023-07-16T05:23:51.081Z,91.19
2023-07-16T05:24:51.060Z,93.62
2023-07-16T05:25:51.181Z,94.18
2023-07-16T05:26:51.023Z,96.70
2023-07-16T05:27:51.019Z,97.31
2023-07-16T05:28:50.998Z,96.65
2023-07-16T05:29:51.010Z,96.70
2023-07-16T05:30:50.991Z,96.60
2023-07-16T05:31:51.011Z,97.21
2023-07-16T05:32:50.998Z,97.45
2023-07-16T05:33:50.926Z,94.04
2023-07-16T05:34:50.923Z,99.99
2023-07-16T05:35:50.906Z,99.99
2023-07-16T05:36:50.880Z,99.99
2023-07-16T05:37:50.884Z,99.99
2023-07-16T05:38:50.862Z,99.99
2023-07-16T05:39:50.872Z,99.99
2023-07-16T05:40:50.821Z,99.99
2023-07-16T05:41:50.855Z,99.99
2023-07-16T05:42:50.799Z,99.99
2023-07-16T05:43:50.812Z,99.99
2023-07-16T05:44:49.122Z,99.99
2023-07-16T05:45:50.798Z,99.99
2023-07-16T05:46:50.777Z,99.99
2023-07-16T05:47:50.808Z,99.99
2023-07-16T05:48:50.761Z,99.99
2023-07-16T05:49:50.239Z,99.99
2023-07-16T05:50:50.691Z,99.99
2023-07-16T05:51:50.682Z,99.99
2023-07-16T05:52:50.684Z,99.99
2023-07-16T05:53:50.661Z,99.99
2023-07-16T05:54:50.649Z,99.99
2023-07-16T05:55:50.136Z,99.99
2023-07-16T05:56:50.603Z,98.47
2023-07-16T05:57:50.619Z,99.99
2023-07-16T05:58:50.603Z,99.99
2023-07-16T05:59:50.584Z,99.99
2023-07-16T06:00:50.608Z,99.99
2023-07-16T06:01:50.577Z,99.99
2023-07-16T06:02:50.556Z,99.99
2023-07-16T06:03:50.617Z,99.99
2023-07-16T06:04:50.523Z,99.99
2023-07-16T06:05:50.498Z,99.99
2023-07-16T06:06:52.895Z,99.99
2023-07-16T06:07:50.488Z,99.99
2023-07-16T06:08:50.486Z,99.99
2023-07-16T06:09:50.425Z,99.99
2023-07-16T06:10:50.402Z,99.99
2023-07-16T06:11:50.392Z,99.99
2023-07-16T06:12:50.387Z,99.99
2023-07-16T06:13:50.386Z,99.99
2023-07-16T06:14:50.347Z,99.99
2023-07-16T06:15:50.376Z,99.99
2023-07-16T06:16:50.445Z,99.99
2023-07-16T06:17:50.374Z,99.99
2023-07-16T06:18:50.312Z,99.99
2023-07-16T06:19:50.285Z,99.99
2023-07-16T06:20:50.283Z,99.99
2023-07-16T06:21:50.270Z,99.99
2023-07-16T06:22:50.327Z,99.99
2023-07-16T06:23:50.302Z,99.99
2023-07-16T06:24:50.228Z,99.99
2023-07-16T06:25:50.244Z,99.99
2023-07-16T06:26:50.187Z,91.98
2023-07-16T06:27:50.193Z,82.57
2023-07-16T06:28:50.162Z,84.57
2023-07-16T06:29:50.150Z,85.30
2023-07-16T06:30:50.125Z,81.33
2023-07-16T06:31:50.181Z,79.65
2023-07-16T06:32:50.141Z,76.54
2023-07-16T06:33:50.098Z,73.38
2023-07-16T06:34:50.092Z,73.95
2023-07-16T06:35:50.066Z,74.52
2023-07-16T06:36:50.044Z,79.59
2023-07-16T06:37:50.044Z,84.67
2023-07-16T06:38:50.041Z,86.21
2023-07-16T06:39:50.027Z,85.30
2023-07-16T06:40:49.994Z,83.03
2023-07-16T06:41:49.992Z,79.47
2023-07-16T06:42:49.556Z,89.36
2023-07-16T06:43:49.965Z,86.24
2023-07-16T06:44:49.940Z,84.11
2023-07-16T06:45:49.983Z,79.86
2023-07-16T06:46:49.985Z,81.67
2023-07-16T06:47:49.968Z,85.03
2023-07-16T06:48:49.914Z,90.78
2023-07-16T06:49:49.890Z,90.29
2023-07-16T06:50:49.893Z,91.30
2023-07-16T06:51:49.840Z,88.99
2023-07-16T06:52:49.825Z,92.84
2023-07-16T06:53:49.904Z,95.04
2023-07-16T06:54:49.806Z,99.99
2023-07-16T06:55:48.522Z,97.16
2023-07-16T06:56:50.001Z,87.50
2023-07-16T06:57:49.825Z,83.31
2023-07-16T06:58:49.761Z,83.07
2023-07-16T06:59:49.746Z,78.19
2023-07-16T07:00:50.270Z,78.96
2023-07-16T07:01:49.703Z,76.83
2023-07-16T07:02:49.705Z,80.71
2023-07-16T07:03:49.822Z,83.65
2023-07-16T07:04:49.675Z,80.07
2023-07-16T07:05:49.730Z,79.67
2023-07-16T07:06:49.647Z,78.41
2023-07-16T07:07:49.678Z,82.51
2023-07-16T07:08:49.616Z,78.45
2023-07-16T07:09:49.678Z,73.09
2023-07-16T07:10:49.678Z,72.32
2023-07-16T07:11:49.596Z,71.06
2023-07-16T07:12:49.594Z,72.96
2023-07-16T07:13:49.575Z,75.35
2023-07-16T07:14:49.579Z,70.72
2023-07-16T07:15:49.590Z,69.20
2023-07-16T07:16:54.560Z,65.98
2023-07-16T07:17:50.703Z,62.56
2023-07-16T07:18:51.630Z,70.03
2023-07-16T07:19:49.468Z,71.03
2023-07-16T07:20:49.460Z,74.42
2023-07-16T07:21:49.458Z,73.66
2023-07-16T07:22:49.460Z,74.96
2023-07-16T07:23:49.416Z,75.92
2023-07-16T07:24:49.395Z,76.12
2023-07-16T07:25:49.386Z,71.59
2023-07-16T07:26:49.383Z,69.86
2023-07-16T07:27:49.953Z,71.49
2023-07-16T07:28:49.351Z,73.29
2023-07-16T07:29:49.311Z,73.60
2023-07-16T07:30:49.957Z,73.39
2023-07-16T07:31:49.381Z,70.46
2023-07-16T07:32:49.339Z,67.43
2023-07-16T07:33:49.282Z,69.76
2023-07-16T07:34:49.269Z,65.91
2023-07-16T07:35:49.307Z,64.16
2023-07-16T07:36:49.219Z,63.22
2023-07-16T07:37:49.211Z,64.61
2023-07-16T07:38:49.211Z,63.95
2023-07-16T07:39:49.182Z,63.69
2023-07-16T07:40:49.164Z,61.77
2023-07-16T07:41:49.156Z,63.10
2023-07-16T07:42:49.143Z,63.26
2023-07-16T07:43:49.138Z,60.72
2023-07-16T07:44:49.115Z,58.16
2023-07-16T07:45:49.099Z,56.74
2023-07-16T07:46:49.117Z,56.72
2023-07-16T07:47:49.136Z,55.76
2023-07-16T07:48:49.081Z,56.38
2023-07-16T07:49:49.050Z,58.67
2023-07-16T07:50:52.046Z,60.23
2023-07-16T07:51:49.017Z,60.93
2023-07-16T07:52:49.034Z,59.79
2023-07-16T07:53:49.009Z,60.63
2023-07-16T07:54:48.976Z,59.79
2023-07-16T07:55:48.972Z,64.01
2023-07-16T07:56:48.966Z,66.33
2023-07-16T07:57:48.941Z,67.63
2023-07-16T07:58:48.955Z,67.10
2023-07-16T07:59:48.893Z,64.94
2023-07-16T08:00:48.883Z,61.29
2023-07-16T08:01:48.888Z,65.60
2023-07-16T08:02:48.939Z,66.96
2023-07-16T08:03:49.062Z,66.27
2023-07-16T08:04:49.119Z,61.99
2023-07-16T08:05:48.834Z,62.10
2023-07-16T08:06:48.898Z,64.54
2023-07-16T08:07:48.814Z,67.90
2023-07-16T08:08:48.785Z,66.83
2023-07-16T08:09:48.771Z,63.89
2023-07-16T08:10:48.773Z,62.05
2023-07-16T08:11:48.758Z,62.71
2023-07-16T08:12:48.736Z,59.52
2023-07-16T08:13:48.712Z,61.69
2023-07-16T08:14:48.713Z,61.14
2023-07-16T08:15:48.696Z,61.47
2023-07-16T08:16:48.740Z,60.78
2023-07-16T08:17:48.833Z,61.64
2023-07-16T08:18:48.676Z,63.89
2023-07-16T08:19:48.636Z,62.16
2023-07-16T08:20:48.632Z,61.82
2023-07-16T08:21:48.630Z,66.80
2023-07-16T08:22:48.688Z,65.70
2023-07-16T08:23:48.568Z,63.95
2023-07-16T08:24:48.568Z,64.11
2023-07-16T08:25:48.565Z,62.05
2023-07-16T08:26:48.543Z,61.57
2023-07-16T08:27:48.515Z,58.74
2023-07-16T08:28:48.526Z,59.03
2023-07-16T08:29:48.507Z,54.71
2023-07-16T08:30:48.557Z,54.79
2023-07-16T08:31:48.462Z,53.70
2023-07-16T08:32:48.513Z,52.53
2023-07-16T08:33:48.424Z,52.41
2023-07-16T08:34:48.421Z,52.12
2023-07-16T08:35:48.409Z,53.63
2023-07-16T08:36:48.404Z,58.22
2023-07-16T08:37:48.377Z,58.13
2023-07-16T08:38:48.366Z,59.78
2023-07-16T08:39:48.348Z,58.62
2023-07-16T08:40:48.333Z,56.11
2023-07-16T08:41:48.331Z,56.38
2023-07-16T08:42:48.325Z,54.52
2023-07-16T08:43:48.288Z,56.90
2023-07-16T08:44:48.312Z,54.70
2023-07-16T08:45:48.273Z,57.81
2023-07-16T08:46:48.310Z,58.75
2023-07-16T08:47:48.259Z,60.53
2023-07-16T08:48:48.242Z,61.46
2023-07-16T08:49:48.224Z,60.05
2023-07-16T08:50:48.228Z,63.37
2023-07-16T08:51:48.198Z,59.02
2023-07-16T08:52:48.210Z,58.84
2023-07-16T08:53:48.189Z,55.65
2023-07-16T08:54:48.169Z,55.10
2023-07-16T08:55:50.613Z,53.68
2023-07-16T08:56:48.128Z,53.31
2023-07-16T08:57:48.097Z,54.62
2023-07-16T08:58:48.122Z,51.40
2023-07-16T08:59:48.093Z,50.90
2023-07-16T09:00:48.078Z,50.43
2023-07-16T09:01:48.142Z,49.79
2023-07-16T09:02:48.095Z,52.00
2023-07-16T09:03:48.069Z,52.34
2023-07-16T09:04:48.024Z,53.19
2023-07-16T09:05:48.392Z,52.26
2023-07-16T09:06:48.029Z,55.05
2023-07-16T09:07:48.012Z,53.58
2023-07-16T09:08:48.020Z,52.86
2023-07-16T09:09:47.955Z,52.56
2023-07-16T09:10:47.986Z,52.24
2023-07-16T09:11:47.941Z,52.14
2023-07-16T09:12:47.933Z,50.13
2023-07-16T09:13:47.938Z,50.21
2023-07-16T09:14:47.940Z,52.39
2023-07-16T09:15:51.555Z,51.82
2023-07-16T09:16:48.131Z,51.32
2023-07-16T09:17:47.996Z,52.14
2023-07-16T09:18:47.888Z,50.58
2023-07-16T09:19:47.820Z,48.30
2023-07-16T09:20:47.814Z,51.42
2023-07-16T09:21:47.823Z,49.42
2023-07-16T09:22:47.913Z,48.75
2023-07-16T09:23:47.772Z,49.32
2023-07-16T09:24:47.792Z,46.93
2023-07-16T09:25:47.738Z,48.92
2023-07-16T09:26:47.441Z,50.43
2023-07-16T09:27:48.256Z,50.23
2023-07-16T09:28:47.726Z,50.46
2023-07-16T09:29:48.549Z,48.75
2023-07-16T09:30:47.727Z,48.68
2023-07-16T09:31:45.852Z,46.58
2023-07-16T09:32:47.615Z,49.71
2023-07-16T09:33:47.648Z,49.89
2023-07-16T09:34:47.657Z,48.92
2023-07-16T09:35:47.645Z,52.00
2023-07-16T09:36:47.639Z,52.37
2023-07-16T09:37:47.594Z,50.65
2023-07-16T09:38:47.609Z,50.18
2023-07-16T09:39:47.575Z,48.13
2023-07-16T09:40:47.602Z,51.65
2023-07-16T09:41:49.573Z,50.29
2023-07-16T09:42:47.581Z,47.00
2023-07-16T09:43:47.532Z,44.71
2023-07-16T09:44:47.847Z,46.83
2023-07-16T09:45:47.559Z,46.31
2023-07-16T09:46:47.884Z,47.67
2023-07-16T09:47:47.543Z,45.28
2023-07-16T09:48:47.471Z,45.60
2023-07-16T09:49:47.470Z,46.51
2023-07-16T09:50:47.440Z,45.64
2023-07-16T09:51:47.698Z,45.59
2023-07-16T09:52:47.440Z,46.78
2023-07-16T09:53:47.396Z,47.36
2023-07-16T09:54:47.384Z,47.41
2023-07-16T09:55:47.371Z,46.88
2023-07-16T09:56:47.349Z,47.94
2023-07-16T09:57:47.338Z,47.37
2023-07-16T09:58:47.309Z,46.28
2023-07-16T09:59:47.609Z,46.06
2023-07-16T10:00:47.711Z,46.31
2023-07-16T10:01:47.366Z,45.62
2023-07-16T10:02:47.430Z,45.47
2023-07-16T10:03:48.891Z,46.26
2023-07-16T10:04:47.267Z,45.72
2023-07-16T10:05:47.242Z,44.12
2023-07-16T10:06:47.217Z,44.60
2023-07-16T10:07:45.320Z,45.47
2023-07-16T10:08:47.175Z,44.09
2023-07-16T10:09:47.196Z,45.93
2023-07-16T10:10:47.212Z,47.59
2023-07-16T10:11:47.149Z,44.75
2023-07-16T10:12:47.204Z,45.64
2023-07-16T10:13:47.156Z,44.64
2023-07-16T10:14:47.165Z,43.68
2023-07-16T10:15:47.135Z,44.65
2023-07-16T10:16:47.106Z,42.38
2023-07-16T10:17:47.097Z,42.40
2023-07-16T10:18:47.079Z,44.35
2023-07-16T10:19:47.072Z,43.17
2023-07-16T10:20:47.074Z,44.37
2023-07-16T10:21:47.017Z,43.62
2023-07-16T10:22:47.113Z,45.68
2023-07-16T10:23:45.631Z,48.37
2023-07-16T10:24:47.290Z,49.32
2023-07-16T10:25:46.986Z,49.57
2023-07-16T10:26:46.965Z,47.79
2023-07-16T10:27:46.966Z,46.76
2023-07-16T10:28:47.002Z,46.16
2023-07-16T10:29:46.916Z,46.39
2023-07-16T10:30:46.954Z,46.53
2023-07-16T10:31:46.957Z,46.26
2023-07-16T10:32:47.010Z,46.66
2023-07-16T10:33:46.697Z,46.74
2023-07-16T10:34:46.897Z,48.35
2023-07-16T10:35:46.857Z,49.57
2023-07-16T10:36:46.861Z,48.68
2023-07-16T10:37:46.833Z,48.11
2023-07-16T10:38:46.821Z,48.65
2023-07-16T10:39:46.834Z,47.10
2023-07-16T10:40:46.775Z,47.23
2023-07-16T10:41:46.785Z,45.31
2023-07-16T10:42:46.788Z,43.44
2023-07-16T10:43:46.741Z,43.60
2023-07-16T10:44:46.772Z,44.46
2023-07-16T10:45:46.756Z,43.93
2023-07-16T10:46:46.746Z,43.40
2023-07-16T10:47:46.719Z,41.80
2023-07-16T10:48:46.678Z,42.16
2023-07-16T10:49:46.676Z,43.64
2023-07-16T10:50:46.664Z,42.52
2023-07-16T10:51:46.643Z,41.65
2023-07-16T10:52:46.645Z,43.39
2023-07-16T10:53:46.624Z,45.17
2023-07-16T10:54:46.613Z,45.01
2023-07-16T10:55:46.603Z,45.21
2023-07-16T10:56:46.628Z,42.41
2023-07-16T10:57:46.585Z,43.99
2023-07-16T10:58:46.569Z,41.02
2023-07-16T10:59:46.542Z,41.59
2023-07-16T11:00:46.618Z,40.39
2023-07-16T11:01:46.632Z,41.73
2023-07-16T11:02:46.557Z,42.76
2023-07-16T11:03:46.619Z,44.81
2023-07-16T11:04:46.511Z,45.74
2023-07-16T11:05:46.478Z,46.38
2023-07-16T11:06:46.496Z,46.15
2023-07-16T11:07:50.093Z,48.15
2023-07-16T11:08:47.459Z,47.80
2023-07-16T11:09:46.435Z,49.63
2023-07-16T11:10:46.411Z,50.03
2023-07-16T11:11:46.176Z,49.68
2023-07-16T11:12:46.379Z,51.10
2023-07-16T11:13:48.672Z,50.93
2023-07-16T11:14:46.367Z,51.03
2023-07-16T11:15:46.398Z,51.65
2023-07-16T11:16:46.337Z,52.76
2023-07-16T11:17:46.327Z,53.06
2023-07-16T11:18:46.299Z,54.06
2023-07-16T11:19:47.256Z,51.77
2023-07-16T11:20:46.281Z,50.70
2023-07-16T11:21:46.262Z,50.33
2023-07-16T11:22:46.331Z,50.73
2023-07-16T11:23:46.230Z,49.56
2023-07-16T11:24:46.216Z,48.40
2023-07-16T11:25:46.199Z,49.24
2023-07-16T11:26:46.186Z,50.35
2023-07-16T11:27:46.179Z,49.61
2023-07-16T11:28:46.164Z,49.63
2023-07-16T11:29:46.154Z,50.25
2023-07-16T11:30:46.273Z,48.22
2023-07-16T11:31:46.136Z,49.43
2023-07-16T11:32:46.241Z,52.29
2023-07-16T11:33:45.156Z,50.45
2023-07-16T11:34:46.097Z,50.27
2023-07-16T11:35:46.068Z,49.19
2023-07-16T11:36:46.047Z,48.40
2023-07-16T11:37:46.041Z,46.33
2023-07-16T11:38:46.032Z,44.84
2023-07-16T11:39:46.084Z,45.47
2023-07-16T11:40:46.008Z,43.03
2023-07-16T11:41:45.995Z,41.06
2023-07-16T11:42:45.974Z,41.44
2023-07-16T11:43:45.978Z,42.80
2023-07-16T11:44:45.943Z,42.86
2023-07-16T11:45:45.960Z,45.74
2023-07-16T11:46:45.937Z,46.53
2023-07-16T11:47:45.990Z,45.78
2023-07-16T11:48:45.921Z,44.20
2023-07-16T11:49:45.889Z,44.02
2023-07-16T11:50:45.888Z,45.39
2023-07-16T11:51:45.219Z,43.96
2023-07-16T11:52:45.830Z,43.61
2023-07-16T11:53:45.865Z,44.50
2023-07-16T11:54:45.817Z,44.46
2023-07-16T11:55:45.822Z,43.25
2023-07-16T11:56:45.789Z,45.05
2023-07-16T11:57:45.775Z,44.10
2023-07-16T11:58:45.767Z,44.46
2023-07-16T11:59:45.741Z,42.22
2023-07-16T12:00:45.776Z,44.52
2023-07-16T12:01:45.737Z,45.83
2023-07-16T12:02:45.824Z,44.90
2023-07-16T12:03:45.784Z,43.02
2023-07-16T12:04:45.669Z,43.71
2023-07-16T12:05:53.410Z,44.24
2023-07-16T12:06:46.660Z,45.45
2023-07-16T12:07:45.637Z,42.38
2023-07-16T12:08:45.634Z,43.07
2023-07-16T12:09:45.598Z,43.90
2023-07-16T12:10:45.603Z,42.14
2023-07-16T12:11:45.584Z,41.85
2023-07-16T12:12:45.582Z,42.78
2023-07-16T12:13:45.592Z,43.51
2023-07-16T12:14:45.560Z,43.45
2023-07-16T12:15:45.561Z,43.43
2023-07-16T12:16:45.599Z,41.00
2023-07-16T12:17:45.549Z,40.69
2023-07-16T12:18:45.506Z,42.64
2023-07-16T12:19:45.765Z,40.15
2023-07-16T12:20:45.466Z,41.10
2023-07-16T12:21:45.476Z,43.41
2023-07-16T12:22:45.506Z,42.92
2023-07-16T12:23:45.433Z,43.04
2023-07-16T12:24:45.419Z,44.67
2023-07-16T12:25:45.417Z,44.17
2023-07-16T12:26:45.400Z,44.92
2023-07-16T12:27:45.444Z,42.99
2023-07-16T12:28:45.361Z,42.70
2023-07-16T12:29:45.360Z,44.85
2023-07-16T12:30:45.370Z,42.07
2023-07-16T12:31:45.323Z,41.49
2023-07-16T12:32:43.923Z,42.07
2023-07-16T12:33:45.297Z,42.82
2023-07-16T12:34:45.286Z,42.07
2023-07-16T12:35:45.287Z,42.10
2023-07-16T12:36:45.245Z,42.44
2023-07-16T12:37:45.255Z,44.10
2023-07-16T12:38:45.215Z,43.12
2023-07-16T12:39:45.237Z,43.13
2023-07-16T12:40:45.237Z,44.96
2023-07-16T12:41:45.218Z,43.77
2023-07-16T12:42:45.214Z,45.71
2023-07-16T12:43:45.174Z,42.74
2023-07-16T12:44:45.177Z,43.07
2023-07-16T12:45:45.155Z,40.56
2023-07-16T12:46:45.148Z,41.89
2023-07-16T12:47:45.204Z,43.52
2023-07-16T12:48:45.111Z,41.09
2023-07-16T12:49:45.092Z,39.20
2023-07-16T12:50:45.082Z,40.09
2023-07-16T12:51:45.070Z,41.17
2023-07-16T12:52:45.045Z,39.48